»·PEaware :: WAT540 KSBD-KEMT

WAT540 :: KSBD-KEMT

FLIGHT INFORMATION

Flight Status: Arrived
Operator:
Walker Air Transport
More flights by this operator :: More flights under this callsign
Pilot: Michael R. (33632)
Aircraft: GRUMMAN AERO AA5 CHEETAH TIGER
(AA5)
More flights by this aircraft type
Origin: KSBD San Bernardino Intl
United States
Destination: KEMT El Monte
United States
More flights between these airports :: More routes between these airports
Route: GAREY AYKAY WELDR BOYEL LIZZE UGIVE FLYIN ITSME
File this flight plan on PilotEdge
Remarks: CAT7
Altitude:
(Current/Filed)
4,500ft
Speed:
(Current/Filed)
130kts
Departed: 08-Feb-21 08:07 AM
Arrived: 08-Feb-21 08:34 AM
Distance/Time
Traveled:
40nm/0:27
Distance/Time
To Go:
Arrived

Flight Plot

Page will automatically refresh every two minutes.

Flight plan parsing failed; only flown route is shown


Map Options




Map Legend


Flown Route
Filed Route
Departure Airport
Arrival Airport
Navaid (VOR, NDB)
Fix

Horizontal Profiles

Position Reports

Time Latitude Longitude Heading Altitude Ground
Speed
08-Feb-21 07:15 34.102166 -117.224730 94 1144ft 0kts
08-Feb-21 07:16 34.102166 -117.224730 94 1144ft 0kts
08-Feb-21 07:17 34.102166 -117.224730 94 1144ft 0kts
08-Feb-21 07:18 34.102166 -117.224730 94 1144ft 0kts
08-Feb-21 07:19 34.102166 -117.224730 94 1144ft 0kts
08-Feb-21 07:20 34.102166 -117.224730 94 1144ft 0kts
08-Feb-21 07:21 34.102166 -117.224730 94 1144ft 0kts
08-Feb-21 07:22 34.102166 -117.224730 94 1144ft 0kts
08-Feb-21 07:23 34.102166 -117.224730 94 1144ft 0kts
08-Feb-21 07:24 34.102166 -117.224730 94 1144ft 0kts
08-Feb-21 07:25 34.102166 -117.224730 94 1144ft 0kts
08-Feb-21 07:26 34.102166 -117.224730 94 1144ft 0kts
08-Feb-21 07:27 34.102166 -117.224730 94 1144ft 0kts
08-Feb-21 07:28 34.102166 -117.224730 94 1144ft 0kts
08-Feb-21 07:29 34.102166 -117.224730 94 1144ft 0kts
08-Feb-21 07:30 34.102166 -117.224730 94 1144ft 0kts
08-Feb-21 07:31 34.102166 -117.224730 94 1144ft 0kts
08-Feb-21 07:32 34.102166 -117.224730 94 1144ft 0kts
08-Feb-21 07:33 34.102166 -117.224730 94 1144ft 0kts
08-Feb-21 07:34 34.102166 -117.224730 94 1144ft 0kts
08-Feb-21 07:35 34.102166 -117.224730 94 1144ft 0kts
08-Feb-21 07:36 34.102166 -117.224730 94 1144ft 0kts
08-Feb-21 07:37 34.102166 -117.224730 94 1144ft 0kts
08-Feb-21 07:38 34.102166 -117.224730 94 1144ft 0kts
08-Feb-21 07:39 34.102166 -117.224730 94 1144ft 0kts
08-Feb-21 07:40 34.102166 -117.224730 94 1144ft 0kts
08-Feb-21 07:41 34.102166 -117.224730 94 1144ft 0kts
08-Feb-21 07:42 34.102166 -117.224730 94 1144ft 0kts
08-Feb-21 07:43 34.102166 -117.224730 94 1144ft 0kts
08-Feb-21 07:44 34.102166 -117.224730 94 1144ft 0kts
08-Feb-21 07:45 34.102166 -117.224730 93 1144ft 0kts
08-Feb-21 07:46 34.102166 -117.224730 93 1144ft 0kts
08-Feb-21 07:47 34.102166 -117.224730 93 1144ft 0kts
08-Feb-21 07:48 34.102166 -117.224730 93 1144ft 0kts
08-Feb-21 07:49 34.102166 -117.224730 93 1144ft 0kts
08-Feb-21 07:50 34.102166 -117.224730 93 1144ft 0kts
08-Feb-21 07:51 34.102166 -117.224730 93 1144ft 0kts
08-Feb-21 07:52 34.102166 -117.224730 93 1144ft 0kts
08-Feb-21 07:53 34.102166 -117.224730 93 1144ft 0kts
08-Feb-21 07:54 34.102166 -117.224730 93 1144ft 0kts
08-Feb-21 07:55 34.102166 -117.224730 93 1144ft 0kts
08-Feb-21 07:56 34.102166 -117.224730 93 1144ft 0kts
08-Feb-21 07:57 34.102166 -117.224730 93 1144ft 0kts
08-Feb-21 07:58 34.102166 -117.224730 93 1144ft 0kts
08-Feb-21 07:59 34.102166 -117.224730 93 1144ft 0kts
08-Feb-21 08:00 34.101966 -117.224717 183 1144ft 8kts
08-Feb-21 08:01 34.098678 -117.229635 251 1131ft 28kts
08-Feb-21 08:02 34.095687 -117.239770 250 1103ft 34kts
08-Feb-21 08:03 34.092666 -117.250075 250 1081ft 26kts
08-Feb-21 08:05 34.091596 -117.250766 153 1080ft 0kts
08-Feb-21 08:06 34.091088 -117.250343 135 1080ft 10kts
08-Feb-21 08:07 34.095972 -117.232217 71 1542ft 81kts
08-Feb-21 08:08 34.097032 -117.206013 145 2455ft 85kts
08-Feb-21 08:09 34.082532 -117.221988 251 3356ft 84kts
08-Feb-21 08:10 34.074994 -117.248621 251 4179ft 87kts
08-Feb-21 08:11 34.065906 -117.280846 251 4507ft 115kts
08-Feb-21 08:12 34.049188 -117.313813 182 4493ft 117kts
08-Feb-21 08:13 34.033620 -117.290122 51 4499ft 119kts
08-Feb-21 08:14 34.066340 -117.285192 341 4495ft 125kts
08-Feb-21 08:15 34.074156 -117.323480 269 4500ft 126kts
08-Feb-21 08:16 34.075920 -117.365855 273 4500ft 127kts
08-Feb-21 08:17 34.078040 -117.406813 273 4499ft 117kts
08-Feb-21 08:18 34.080136 -117.445610 274 4501ft 118kts
08-Feb-21 08:19 34.082418 -117.485908 274 4500ft 122kts
08-Feb-21 08:20 34.084841 -117.527086 274 4500ft 123kts
08-Feb-21 08:21 34.087353 -117.568195 274 4500ft 123kts
08-Feb-21 08:21 34.089213 -117.602513 273 4500ft 123kts
08-Feb-21 08:22 34.091265 -117.643738 273 4500ft 123kts
08-Feb-21 08:24 34.092664 -117.692017 271 4500ft 123kts
08-Feb-21 08:24 34.093741 -117.726734 273 4370ft 127kts
08-Feb-21 08:25 34.097197 -117.770158 277 3962ft 133kts
08-Feb-21 08:26 34.096367 -117.815505 268 3423ft 135kts
08-Feb-21 08:27 34.095197 -117.860190 268 2877ft 131kts
08-Feb-21 08:28 34.094171 -117.902326 268 2292ft 123kts
08-Feb-21 08:29 34.095422 -117.942829 275 1678ft 121kts
08-Feb-21 08:30 34.099378 -117.980942 283 1456ft 97kts
08-Feb-21 08:31 34.102463 -118.007537 269 1297ft 78kts
08-Feb-21 08:32 34.094189 -118.030105 209 488ft 79kts
08-Feb-21 08:33 34.085721 -118.034379 15 285ft 6kts
08-Feb-21 08:34 34.086113 -118.033462 108 287ft 2kts
08-Feb-21 08:35 34.086020 -118.032808 8 289ft 0kts
08-Feb-21 08:36 34.086020 -118.032809 8 289ft 0kts
08-Feb-21 08:37 34.086020 -118.032809 8 289ft 0kts

Navigation Log

Ident Type
Flight plan parsing failed, navigation log unavailable